Time;durP1;ratioP1;P1;durP2;ratioP2;P2;SDS_P1;SDS_P2;PMS_P1;PMS_P2;Temp;Humidity;BMP_temperature;BMP_pressure;BME280_temperature;BME280_humidity;BME280_pressure;Samples;Min_cycle;Max_cycle;Signal;HPM_P1;HPM_P2
2023/04/06 00:00:12;;;;;;;11.77;9.65;;;2.10;76.60;;;;;;5033050;28;20202;-67
2023/04/06 00:02:40;;;;;;;13.27;9.68;;;2.10;76.90;;;;;;5033697;28;20309;-67
2023/04/06 00:05:08;;;;;;;13.82;9.82;;;2.00;77.00;;;;;;5033023;28;20217;-67
2023/04/06 00:07:35;;;;;;;11.13;9.98;;;2.00;77.30;;;;;;5033241;28;20201;-67
2023/04/06 00:10:02;;;;;;;11.07;10.00;;;2.00;77.50;;;;;;5033189;28;20202;-67
2023/04/06 00:12:29;;;;;;;11.40;9.98;;;2.00;77.70;;;;;;5032981;28;20226;-66
2023/04/06 00:14:56;;;;;;;12.27;10.35;;;1.90;78.00;;;;;;5033276;28;20199;-66
2023/04/06 00:17:23;;;;;;;10.70;9.30;;;1.90;78.40;;;;;;5032801;28;20662;-67
2023/04/06 00:19:51;;;;;;;15.57;10.32;;;1.90;78.70;;;;;;5033770;28;20565;-66
2023/04/06 00:22:18;;;;;;;11.65;10.10;;;1.90;79.10;;;;;;5032581;28;20265;-66
2023/04/06 00:24:45;;;;;;;11.48;9.95;;;1.80;79.40;;;;;;5033229;28;20289;-67
2023/04/06 00:27:12;;;;;;;14.02;10.52;;;1.80;79.80;;;;;;5034668;28;20285;-67
2023/04/06 00:29:40;;;;;;;10.85;8.88;;;1.80;80.30;;;;;;5036772;28;20288;-67
2023/04/06 00:32:07;;;;;;;13.90;10.63;;;1.80;80.50;;;;;;5036749;28;20268;-66
2023/04/06 00:34:34;;;;;;;14.43;10.40;;;1.80;80.90;;;;;;5036705;28;20248;-66
2023/04/06 00:37:02;;;;;;;11.85;10.45;;;1.80;81.30;;;;;;5036607;28;20271;-67
2023/04/06 00:39:29;;;;;;;12.70;9.77;;;1.70;81.50;;;;;;5037273;28;20268;-67
2023/04/06 00:41:57;;;;;;;12.20;10.75;;;1.70;82.10;;;;;;5036861;28;20222;-67
2023/04/06 00:44:25;;;;;;;11.05;9.85;;;1.70;82.70;;;;;;5036418;28;20233;-65
2023/04/06 00:46:52;;;;;;;12.85;9.70;;;1.70;83.10;;;;;;5036767;28;20284;-67
2023/04/06 00:49:19;;;;;;;11.07;9.90;;;1.70;83.30;;;;;;5036661;28;20706;-65
2023/04/06 00:51:46;;;;;;;12.07;10.45;;;1.70;83.80;;;;;;5036518;28;20265;-66
2023/04/06 00:54:14;;;;;;;12.93;10.15;;;1.70;83.90;;;;;;5036377;28;20237;-66
2023/04/06 00:56:43;;;;;;;11.80;9.57;;;1.60;84.20;;;;;;5036184;28;20225;-67
2023/04/06 00:59:10;;;;;;;21.10;9.57;;;1.60;84.80;;;;;;5035962;28;20207;-67
2023/04/06 01:01:37;;;;;;;11.50;9.82;;;1.60;85.10;;;;;;5036336;28;20218;-67
2023/04/06 01:04:04;;;;;;;13.75;10.05;;;1.60;86.00;;;;;;5036502;28;20234;-66
2023/04/06 01:06:31;;;;;;;10.00;8.80;;;1.50;86.40;;;;;;5036153;28;20198;-66
2023/04/06 01:08:57;;;;;;;12.05;8.95;;;1.50;86.70;;;;;;5035949;28;20646;-66
2023/04/06 01:11:26;;;;;;;10.35;9.23;;;1.50;87.20;;;;;;5036061;28;20257;-67
2023/04/06 01:13:53;;;;;;;11.60;9.60;;;1.50;87.70;;;;;;5036299;28;20206;-67
2023/04/06 01:16:20;;;;;;;10.80;9.07;;;1.50;88.20;;;;;;5036677;28;20254;-67
2023/04/06 01:18:47;;;;;;;10.82;9.57;;;1.40;88.40;;;;;;5036489;28;20285;-67
2023/04/06 01:21:16;;;;;;;11.05;9.55;;;1.40;89.20;;;;;;5036180;28;20258;-67
2023/04/06 01:23:45;;;;;;;12.40;9.18;;;1.40;89.30;;;;;;5036579;28;20195;-66
2023/04/06 01:26:13;;;;;;;8.77;7.90;;;1.40;89.80;;;;;;5036620;28;20213;-66
2023/04/06 01:28:40;;;;;;;9.88;8.55;;;1.40;90.10;;;;;;5036531;28;20687;-66
2023/04/06 01:31:10;;;;;;;11.50;9.60;;;1.40;90.20;;;;;;5036291;28;20261;-66
2023/04/06 01:33:36;;;;;;;10.40;9.25;;;1.40;90.40;;;;;;5035994;28;20293;-66
2023/04/06 01:36:04;;;;;;;11.10;8.70;;;1.40;90.70;;;;;;5035577;28;20245;-66
2023/04/06 01:38:31;;;;;;;10.13;8.65;;;1.40;90.80;;;;;;5035006;28;20234;-66
2023/04/06 01:40:59;;;;;;;12.98;9.30;;;1.30;91.00;;;;;;5035580;28;20257;-66
2023/04/06 01:43:26;;;;;;;13.55;9.23;;;1.30;91.20;;;;;;5035606;28;20234;-66
2023/04/06 01:45:53;;;;;;;11.95;9.43;;;1.30;91.50;;;;;;5035495;28;20206;-67
2023/04/06 01:48:20;;;;;;;9.85;8.32;;;1.30;91.50;;;;;;5035525;28;20233;-66
2023/04/06 01:50:47;;;;;;;9.52;8.57;;;1.20;91.70;;;;;;5034882;28;20258;-66
2023/04/06 01:53:14;;;;;;;11.40;8.68;;;1.20;91.90;;;;;;5036011;28;20225;-66
2023/04/06 01:55:41;;;;;;;11.45;9.70;;;1.20;92.20;;;;;;5035261;28;20205;-66
2023/04/06 01:58:09;;;;;;;11.77;8.70;;;1.10;92.40;;;;;;5035187;28;20254;-66
2023/04/06 02:00:36;;;;;;;10.77;8.73;;;1.10;92.50;;;;;;5034775;28;20257;-66
2023/04/06 02:03:03;;;;;;;10.07;9.02;;;1.10;92.70;;;;;;5035870;28;20230;-66
2023/04/06 02:05:33;;;;;;;9.38;8.30;;;1.10;92.90;;;;;;5035124;28;20241;-65
2023/04/06 02:07:59;;;;;;;11.65;8.80;;;1.00;93.20;;;;;;5035125;28;20207;-64
2023/04/06 02:10:26;;;;;;;11.52;8.90;;;1.00;93.50;;;;;;5034660;28;20259;-66
2023/04/06 02:12:53;;;;;;;11.00;9.40;;;1.00;93.70;;;;;;5034628;28;20569;-66
2023/04/06 02:15:21;;;;;;;9.93;8.13;;;1.00;93.90;;;;;;5034562;28;20641;-66
2023/04/06 02:17:48;;;;;;;13.43;10.27;;;1.00;94.00;;;;;;5034819;28;20309;-67
2023/04/06 02:20:15;;;;;;;11.02;9.25;;;1.00;94.00;;;;;;5034636;28;20679;-66
2023/04/06 02:22:42;;;;;;;11.02;8.65;;;1.00;94.20;;;;;;5034521;28;20630;-66
2023/04/06 02:25:09;;;;;;;14.15;9.95;;;1.00;94.30;;;;;;5034737;28;20256;-66
2023/04/06 02:27:37;;;;;;;15.23;10.85;;;1.00;94.40;;;;;;5034518;28;20238;-66
2023/04/06 02:30:04;;;;;;;9.73;8.80;;;1.00;94.60;;;;;;5034727;28;20209;-65
2023/04/06 02:32:32;;;;;;;13.60;9.98;;;0.90;94.70;;;;;;5034561;28;20693;-66
2023/04/06 02:34:59;;;;;;;10.65;9.32;;;0.90;94.80;;;;;;5034371;28;20773;-67
2023/04/06 02:37:26;;;;;;;13.13;11.77;;;0.90;95.00;;;;;;5034630;28;20720;-66
2023/04/06 02:39:53;;;;;;;11.20;9.43;;;0.80;95.20;;;;;;5034468;28;20265;-66
2023/04/06 02:42:20;;;;;;;10.75;9.68;;;0.80;95.50;;;;;;5034368;28;20268;-65
2023/04/06 02:44:46;;;;;;;11.82;8.82;;;0.80;95.70;;;;;;5034210;28;20257;-66
2023/04/06 02:47:13;;;;;;;10.50;9.40;;;0.80;96.00;;;;;;5034860;28;20221;-67
2023/04/06 02:49:42;;;;;;;11.85;9.43;;;0.80;96.10;;;;;;5033891;28;20206;-65
2023/04/06 02:52:08;;;;;;;12.52;11.25;;;0.80;96.30;;;;;;5033690;28;20250;-65
2023/04/06 02:54:35;;;;;;;10.80;9.70;;;0.80;96.40;;;;;;5034225;28;20199;-65
2023/04/06 02:57:02;;;;;;;12.98;10.02;;;0.70;96.50;;;;;;5034800;28;20260;-66
2023/04/06 02:59:29;;;;;;;13.80;10.68;;;0.70;96.50;;;;;;5033809;28;20245;-66
2023/04/06 03:01:56;;;;;;;9.35;8.45;;;0.70;96.60;;;;;;5034025;28;20314;-66
2023/04/06 03:04:25;;;;;;;11.45;9.95;;;0.70;96.70;;;;;;5034092;28;20289;-66
2023/04/06 03:06:54;;;;;;;11.27;9.20;;;0.70;96.80;;;;;;5034015;28;20198;-65
2023/04/06 03:09:22;;;;;;;10.93;9.43;;;0.70;97.00;;;;;;5034649;28;20610;-66
2023/04/06 03:11:48;;;;;;;12.18;8.93;;;0.60;97.10;;;;;;5033576;28;20603;-66
2023/04/06 03:14:17;;;;;;;11.95;9.35;;;0.60;97.10;;;;;;5033990;28;20260;-66
2023/04/06 03:16:44;;;;;;;12.55;9.02;;;0.60;97.20;;;;;;5034096;28;20230;-66
2023/04/06 03:19:11;;;;;;;9.77;8.60;;;0.60;97.30;;;;;;5033909;28;20209;-66
2023/04/06 03:21:38;;;;;;;11.05;9.95;;;0.60;97.40;;;;;;5033337;28;20261;-65
2023/04/06 03:24:07;;;;;;;12.63;9.05;;;0.60;97.40;;;;;;5033584;28;20281;-65
2023/04/06 03:26:34;;;;;;;10.95;9.25;;;0.60;97.40;;;;;;5033401;28;20662;-66
2023/04/06 03:29:01;;;;;;;13.00;9.02;;;0.60;97.50;;;;;;5033396;28;20202;-66
2023/04/06 03:31:28;;;;;;;10.00;8.93;;;0.60;97.50;;;;;;5034538;28;20233;-66
2023/04/06 03:33:55;;;;;;;14.02;10.00;;;0.60;97.80;;;;;;5033419;28;20241;-66
2023/04/06 03:36:22;;;;;;;11.20;8.90;;;0.60;97.50;;;;;;5033249;28;20289;-66
2023/04/06 03:38:49;;;;;;;15.15;11.07;;;0.60;97.60;;;;;;5033157;28;20321;-66
2023/04/06 03:41:17;;;;;;;11.50;8.68;;;0.60;98.00;;;;;;5033053;28;20637;-66
2023/04/06 03:43:44;;;;;;;10.38;8.35;;;0.60;97.80;;;;;;5033400;28;20284;-65
2023/04/06 03:46:11;;;;;;;9.30;8.23;;;0.60;97.80;;;;;;5033153;28;20214;-67
2023/04/06 03:48:38;;;;;;;10.02;8.15;;;0.50;97.90;;;;;;5033422;28;20230;-66
2023/04/06 03:51:05;;;;;;;10.25;8.85;;;0.50;98.00;;;;;;5033068;28;20222;-66
2023/04/06 03:53:32;;;;;;;11.93;8.35;;;0.50;98.00;;;;;;5032951;28;20238;-66
2023/04/06 03:55:59;;;;;;;11.43;8.85;;;0.50;98.00;;;;;;5033308;28;20604;-66
2023/04/06 03:58:27;;;;;;;8.95;7.70;;;0.50;98.10;;;;;;5033265;28;20222;-66
2023/04/06 04:00:54;;;;;;;11.60;8.30;;;0.50;98.20;;;;;;5032683;28;20317;-65
2023/04/06 04:03:23;;;;;;;10.52;8.80;;;0.50;98.20;;;;;;5032860;28;20260;-66
2023/04/06 04:05:50;;;;;;;9.57;8.68;;;0.50;98.20;;;;;;5032915;28;20234;-65
2023/04/06 04:11:30;;;;;;;9.23;7.57;;;0.40;98.00;;;;;;5090718;27;20565;-65
2023/04/06 04:13:57;;;;;;;8.77;6.95;;;0.40;98.00;;;;;;5090991;28;20286;-67
2023/04/06 04:16:23;;;;;;;12.48;8.68;;;0.40;97.90;;;;;;5090762;28;20243;-65
2023/04/06 04:18:50;;;;;;;8.68;7.78;;;0.40;97.90;;;;;;5090196;28;20200;-65
2023/04/06 04:21:17;;;;;;;10.80;8.35;;;0.40;98.00;;;;;;5090384;28;20257;-65
2023/04/06 04:23:44;;;;;;;10.60;8.43;;;0.30;98.10;;;;;;5090456;28;20232;-64
2023/04/06 04:26:11;;;;;;;10.55;8.10;;;0.40;98.20;;;;;;5090358;28;20648;-66
2023/04/06 04:28:39;;;;;;;11.40;6.90;;;0.30;98.30;;;;;;5090467;28;20283;-66
2023/04/06 04:31:06;;;;;;;11.20;7.43;;;0.30;98.40;;;;;;5090204;28;20225;-65
2023/04/06 04:33:33;;;;;;;13.07;6.72;;;0.30;98.40;;;;;;5089970;28;20243;-66
2023/04/06 04:36:00;;;;;;;9.65;8.32;;;0.30;98.50;;;;;;5090189;28;20642;-66
2023/04/06 04:38:27;;;;;;;8.73;7.72;;;0.30;98.50;;;;;;5090201;28;20270;-66
2023/04/06 04:40:54;;;;;;;9.25;7.93;;;0.30;98.60;;;;;;5090097;28;20307;-65
2023/04/06 04:43:21;;;;;;;9.45;7.53;;;0.30;98.50;;;;;;5090228;28;20204;-66
2023/04/06 04:45:49;;;;;;;13.75;7.90;;;0.30;98.60;;;;;;5089812;28;20731;-66
2023/04/06 04:48:16;;;;;;;8.55;7.75;;;0.40;98.60;;;;;;5090043;28;20196;-66
2023/04/06 04:50:43;;;;;;;9.80;8.10;;;0.30;98.50;;;;;;5089453;28;20256;-66
2023/04/06 04:53:10;;;;;;;9.32;8.02;;;0.40;98.50;;;;;;5089916;28;20643;-67
2023/04/06 04:55:36;;;;;;;9.55;7.50;;;0.40;98.40;;;;;;5089807;28;20298;-65
2023/04/06 04:58:03;;;;;;;9.02;6.82;;;0.40;98.40;;;;;;5089878;28;20200;-65
2023/04/06 05:00:31;;;;;;;9.80;8.15;;;0.40;98.50;;;;;;5089611;28;20227;-66
2023/04/06 05:02:59;;;;;;;13.30;7.97;;;0.40;98.60;;;;;;5093348;28;20204;-65
2023/04/06 05:05:26;;;;;;;14.27;8.07;;;0.40;98.60;;;;;;5094637;28;20250;-66
2023/04/06 05:07:53;;;;;;;11.80;8.30;;;0.40;98.60;;;;;;5094142;28;20204;-65
2023/04/06 05:10:20;;;;;;;9.93;8.57;;;0.50;98.80;;;;;;5093667;28;20263;-65
2023/04/06 05:12:47;;;;;;;9.25;8.25;;;0.50;98.90;;;;;;5096586;28;20204;-65
2023/04/06 05:15:14;;;;;;;10.85;8.40;;;0.60;98.80;;;;;;5096305;28;20196;-66
2023/04/06 05:17:41;;;;;;;10.52;8.60;;;0.70;98.60;;;;;;5094466;28;20200;-65
2023/04/06 05:20:10;;;;;;;10.77;8.73;;;0.80;98.50;;;;;;5091233;28;20289;-66
2023/04/06 05:22:37;;;;;;;12.43;9.07;;;0.90;98.50;;;;;;5078770;28;20274;-66
2023/04/06 05:25:05;;;;;;;9.63;8.48;;;0.90;98.40;;;;;;5076755;28;20236;-66
2023/04/06 05:27:32;;;;;;;10.90;7.72;;;0.90;97.90;;;;;;5076601;28;20239;-66
2023/04/06 05:29:58;;;;;;;16.55;8.63;;;1.00;97.80;;;;;;5076495;28;20655;-65
2023/04/06 05:32:25;;;;;;;7.93;7.03;;;0.90;97.70;;;;;;5076256;28;20308;-65
2023/04/06 05:34:52;;;;;;;13.25;8.50;;;1.00;97.70;;;;;;5076327;28;20717;-65
2023/04/06 05:37:21;;;;;;;10.35;8.23;;;1.00;97.50;;;;;;5076781;28;20266;-67
2023/04/06 05:39:48;;;;;;;12.02;8.20;;;1.10;97.40;;;;;;5076988;28;20237;-67
2023/04/06 05:42:15;;;;;;;12.32;8.10;;;1.10;97.30;;;;;;5076461;28;20260;-65
2023/04/06 05:44:42;;;;;;;8.70;7.75;;;1.20;97.10;;;;;;5075901;28;20205;-66
2023/04/06 05:47:09;;;;;;;14.30;9.20;;;1.20;96.90;;;;;;5076473;28;20201;-67
2023/04/06 05:49:36;;;;;;;9.73;8.50;;;1.30;96.70;;;;;;5076174;28;20205;-66
2023/04/06 05:52:04;;;;;;;9.45;8.27;;;1.40;96.60;;;;;;5075949;28;20315;-66
2023/04/06 05:54:32;;;;;;;14.48;7.68;;;1.50;96.30;;;;;;5075690;28;20213;-67
2023/04/06 05:56:59;;;;;;;29.30;9.23;;;1.60;96.10;;;;;;5075478;28;20288;-66
2023/04/06 05:59:26;;;;;;;8.90;8.00;;;1.60;95.80;;;;;;5075883;28;20272;-67
2023/04/06 06:01:52;;;;;;;12.48;8.50;;;1.80;95.60;;;;;;5075453;28;20261;-68
2023/04/06 06:04:19;;;;;;;10.90;8.02;;;1.90;95.20;;;;;;5075465;28;20205;-67
2023/04/06 06:06:46;;;;;;;12.20;8.15;;;1.90;94.80;;;;;;5076253;28;20258;-69
2023/04/06 06:09:13;;;;;;;10.48;7.72;;;2.00;94.40;;;;;;5075064;28;20255;-66
2023/04/06 06:11:42;;;;;;;10.07;8.05;;;2.10;94.10;;;;;;5074955;28;20312;-67
2023/04/06 06:14:09;;;;;;;11.27;7.18;;;2.30;93.80;;;;;;5074841;28;20298;-66
2023/04/06 06:16:36;;;;;;;7.50;6.40;;;2.40;93.50;;;;;;5075007;28;20201;-67
2023/04/06 06:19:03;;;;;;;10.85;8.02;;;2.50;93.10;;;;;;5075208;28;20235;-65
2023/04/06 06:21:31;;;;;;;10.05;7.32;;;2.60;92.70;;;;;;5075193;28;20248;-67
2023/04/06 06:23:58;;;;;;;7.60;6.90;;;2.70;92.20;;;;;;5075328;28;20270;-67
2023/04/06 06:26:25;;;;;;;11.23;8.18;;;2.80;92.10;;;;;;5075039;28;20232;-67
2023/04/06 06:28:53;;;;;;;8.63;6.68;;;2.90;91.30;;;;;;5075192;28;20269;-65
2023/04/06 06:31:22;;;;;;;7.53;6.50;;;3.10;90.80;;;;;;5074761;28;20229;-67
2023/04/06 06:33:50;;;;;;;11.10;7.78;;;3.20;90.20;;;;;;5073831;28;20244;-66
2023/04/06 06:36:17;;;;;;;8.45;7.10;;;3.30;89.40;;;;;;5074734;28;20263;-66
2023/04/06 06:38:44;;;;;;;9.15;7.15;;;3.40;88.00;;;;;;5074753;28;20221;-66
2023/04/06 06:41:11;;;;;;;8.10;7.30;;;3.50;86.80;;;;;;5074921;28;20236;-66
2023/04/06 06:43:38;;;;;;;9.43;7.32;;;3.70;85.60;;;;;;5074714;28;20327;-66
2023/04/06 06:46:06;;;;;;;9.05;6.43;;;3.80;84.10;;;;;;5074771;28;20674;-66
2023/04/06 06:48:33;;;;;;;7.47;6.45;;;4.00;82.80;;;;;;5074138;28;20209;-66
2023/04/06 06:51:00;;;;;;;7.22;6.38;;;4.10;81.40;;;;;;5074228;28;20225;-66
2023/04/06 06:53:27;;;;;;;8.23;6.95;;;4.20;79.80;;;;;;5074723;28;20642;-67
2023/04/06 06:55:54;;;;;;;7.28;5.95;;;4.40;78.50;;;;;;5074669;28;20205;-66
2023/04/06 06:58:21;;;;;;;7.13;6.43;;;4.50;77.00;;;;;;5075363;28;20211;-67
2023/04/06 07:00:48;;;;;;;5.68;4.93;;;4.60;75.50;;;;;;5075192;28;20251;-66
2023/04/06 07:03:17;;;;;;;7.57;6.40;;;4.70;74.10;;;;;;5074922;28;20284;-66
2023/04/06 07:05:49;;;;;;;10.73;6.60;;;4.80;72.70;;;;;;5075355;28;20236;-67
2023/04/06 07:08:17;;;;;;;5.30;4.80;;;5.00;71.40;;;;;;5074882;28;20185;-67
2023/04/06 07:10:43;;;;;;;8.55;5.82;;;5.10;70.20;;;;;;5074570;28;20303;-66
2023/04/06 07:13:10;;;;;;;6.32;5.72;;;5.20;69.10;;;;;;5078231;28;20236;-67
2023/04/06 07:15:38;;;;;;;9.63;6.25;;;5.40;68.20;;;;;;5078291;28;20211;-66
2023/04/06 07:18:05;;;;;;;5.95;5.43;;;5.50;67.20;;;;;;5077875;28;20193;-67
2023/04/06 07:23:09;;;;;;;8.20;6.07;;;5.80;65.70;;;;;;5034307;28;20229;-61
2023/04/06 07:25:36;;;;;;;7.25;5.93;;;5.90;64.60;;;;;;5035297;28;20233;-63
2023/04/06 07:28:06;;;;;;;7.30;5.45;;;6.00;63.70;;;;;;5035742;28;20209;-62
2023/04/06 07:30:33;;;;;;;6.68;6.07;;;6.10;62.90;;;;;;5035568;28;20222;-63
2023/04/06 07:33:00;;;;;;;7.50;6.80;;;6.30;62.30;;;;;;5035571;28;20206;-63
2023/04/06 07:35:29;;;;;;;7.05;6.35;;;6.40;61.70;;;;;;5035626;28;20213;-62
2023/04/06 07:37:57;;;;;;;6.32;5.70;;;6.50;60.90;;;;;;5035095;28;20260;-63
2023/04/06 07:40:26;;;;;;;8.30;6.70;;;6.50;59.90;;;;;;5035048;28;20221;-63
2023/04/06 07:42:52;;;;;;;8.70;5.43;;;6.60;59.30;;;;;;5035024;28;20272;-65
2023/04/06 07:45:19;;;;;;;7.50;6.80;;;6.70;59.40;;;;;;5035285;28;20226;-63
2023/04/06 07:47:47;;;;;;;6.65;6.05;;;6.70;58.20;;;;;;5035421;28;20289;-63
2023/04/06 07:50:14;;;;;;;7.82;7.00;;;6.80;57.60;;;;;;5034671;28;20256;-64
2023/04/06 07:52:41;;;;;;;7.15;6.45;;;6.90;57.00;;;;;;5034381;28;20244;-63
2023/04/06 07:55:09;;;;;;;7.30;6.10;;;7.00;56.50;;;;;;5034860;28;20194;-61
2023/04/06 07:57:37;;;;;;;7.55;6.00;;;7.00;56.20;;;;;;5034997;28;20202;-62
2023/04/06 08:00:05;;;;;;;6.50;5.78;;;7.20;56.00;;;;;;5035181;28;20240;-64
2023/04/06 08:02:32;;;;;;;7.45;6.75;;;7.30;55.70;;;;;;5035063;28;20340;-62
2023/04/06 08:04:59;;;;;;;8.18;5.90;;;7.30;55.20;;;;;;5034774;28;20264;-63
2023/04/06 08:07:27;;;;;;;9.68;6.85;;;7.40;55.00;;;;;;5034807;28;20241;-63
2023/04/06 08:09:55;;;;;;;6.88;6.20;;;7.50;54.60;;;;;;5034974;28;20285;-63
2023/04/06 08:12:22;;;;;;;9.00;6.78;;;7.60;54.40;;;;;;5034449;28;20230;-64
2023/04/06 08:14:50;;;;;;;7.20;6.00;;;7.70;54.30;;;;;;5035437;28;20633;-63
2023/04/06 08:17:17;;;;;;;6.90;6.25;;;7.90;54.10;;;;;;5034649;28;20636;-62
2023/04/06 08:19:44;;;;;;;10.93;5.90;;;8.00;53.80;;;;;;5034874;28;20248;-63
2023/04/06 08:22:11;;;;;;;8.57;6.07;;;8.10;53.50;;;;;;5034494;28;20226;-64
2023/04/06 08:24:38;;;;;;;6.90;5.85;;;8.20;53.10;;;;;;5034662;28;20241;-63
2023/04/06 08:27:05;;;;;;;6.50;5.88;;;8.30;53.10;;;;;;5034697;28;20289;-63
2023/04/06 08:29:36;;;;;;;7.05;6.35;;;8.40;52.60;;;;;;5035188;28;20260;-63
2023/04/06 08:32:05;;;;;;;8.35;7.05;;;8.60;52.30;;;;;;5034807;28;20230;-64
2023/04/06 08:34:33;;;;;;;8.18;6.65;;;8.60;51.90;;;;;;5035277;28;20202;-63
2023/04/06 08:37:00;;;;;;;8.55;6.20;;;8.80;51.80;;;;;;5034510;28;20245;-63
2023/04/06 08:39:27;;;;;;;6.55;5.95;;;8.90;51.30;;;;;;5035258;28;20206;-63
2023/04/06 08:41:56;;;;;;;10.02;7.22;;;9.00;51.00;;;;;;5035135;28;20218;-62
2023/04/06 08:44:24;;;;;;;8.93;6.55;;;9.20;50.80;;;;;;5035008;28;20210;-64
2023/04/06 08:46:52;;;;;;;6.70;5.72;;;9.30;50.70;;;;;;5035206;28;20296;-64
2023/04/06 08:49:21;;;;;;;6.93;6.22;;;9.40;50.60;;;;;;5035709;28;20198;-64
2023/04/06 08:51:48;;;;;;;7.25;6.45;;;9.60;50.40;;;;;;5035764;28;20230;-63
2023/04/06 08:54:15;;;;;;;8.77;6.57;;;9.70;50.20;;;;;;5035087;28;20239;-67
2023/04/06 08:56:43;;;;;;;7.95;7.00;;;9.70;49.80;;;;;;5036152;28;20206;-64
2023/04/06 08:59:10;;;;;;;8.60;6.67;;;9.90;49.60;;;;;;5039098;28;20293;-64
2023/04/06 09:01:42;;;;;;;7.53;6.17;;;10.00;48.50;;;;;;5038508;28;21029;-63
2023/04/06 09:04:10;;;;;;;8.90;5.97;;;10.10;47.90;;;;;;5039003;28;20456;-63
2023/04/06 09:06:40;;;;;;;6.63;5.43;;;10.10;48.20;;;;;;5039345;28;20210;-64
2023/04/06 09:09:07;;;;;;;7.57;6.77;;;10.10;47.40;;;;;;5039060;28;20822;-64
2023/04/06 09:11:48;;;;;;;7.07;6.37;;;10.20;47.20;;;;;;5038727;28;20484;-64
2023/04/06 09:14:16;;;;;;;7.03;6.30;;;10.30;46.70;;;;;;5038916;28;20562;-63
2023/04/06 09:16:45;;;;;;;11.50;7.03;;;10.50;46.50;;;;;;5039298;28;20820;-63
2023/04/06 09:19:13;;;;;;;6.97;6.27;;;10.60;46.10;;;;;;5040303;28;20880;-63
2023/04/06 09:21:41;;;;;;;7.70;6.90;;;10.70;45.80;;;;;;5040247;28;20542;-63
2023/04/06 09:24:09;;;;;;;8.33;6.53;;;10.90;45.50;;;;;;5041616;28;20480;-65
2023/04/06 09:26:46;;;;;;;8.00;7.20;;;11.00;45.00;;;;;;5039298;28;20487;-64
2023/04/06 09:29:24;;;;;;;7.90;6.83;;;11.10;44.80;;;;;;5038587;28;20436;-63
2023/04/06 09:31:51;;;;;;;10.10;7.00;;;11.30;44.50;;;;;;5038899;28;20510;-66
2023/04/06 09:34:26;;;;;;;8.77;6.63;;;11.30;44.10;;;;;;5036641;28;20448;-63
2023/04/06 09:36:55;;;;;;;8.70;6.10;;;11.40;44.00;;;;;;5035610;28;20946;-65
2023/04/06 09:39:23;;;;;;;7.33;6.10;;;11.40;43.80;;;;;;5035727;28;20531;-65
2023/04/06 09:41:52;;;;;;;9.33;6.47;;;11.60;43.70;;;;;;5035559;28;20472;-67
2023/04/06 09:44:19;;;;;;;12.60;7.50;;;11.70;43.50;;;;;;5035814;28;20480;-64
2023/04/06 09:46:47;;;;;;;6.40;5.80;;;11.80;43.30;;;;;;5035317;28;20449;-65
2023/04/06 09:49:15;;;;;;;9.43;6.00;;;11.90;43.00;;;;;;5036250;28;20452;-65
2023/04/06 09:51:46;;;;;;;7.93;6.87;;;12.00;42.80;;;;;;5035445;28;20495;-67
2023/04/06 09:54:21;;;;;;;7.73;6.93;;;12.00;42.50;;;;;;5035922;28;20426;-65
2023/04/06 09:56:52;;;;;;;7.33;5.97;;;12.00;42.50;;;;;;5035383;28;20516;-66
2023/04/06 09:59:27;;;;;;;9.03;6.73;;;12.00;42.30;;;;;;5035553;28;20465;-63
2023/04/06 10:01:56;;;;;;;14.00;6.13;;;12.10;42.10;;;;;;5035338;28;20475;-65
2023/04/06 10:04:33;;;;;;;6.90;5.80;;;12.20;42.00;;;;;;5035368;28;20473;-63
2023/04/06 10:07:00;;;;;;;6.80;5.87;;;12.30;41.70;;;;;;5035413;28;20452;-64
2023/04/06 10:09:35;;;;;;;10.17;7.00;;;12.40;41.30;;;;;;5034857;28;20453;-65
2023/04/06 10:12:03;;;;;;;9.17;6.30;;;12.40;41.50;;;;;;5035465;28;20916;-66
2023/04/06 10:14:31;;;;;;;8.17;6.10;;;12.40;40.70;;;;;;5035345;28;20499;-65
2023/04/06 10:16:59;;;;;;;7.10;5.97;;;12.50;40.60;;;;;;5034945;28;20487;-63
2023/04/06 10:19:29;;;;;;;6.07;5.30;;;12.50;40.10;;;;;;5034794;28;20453;-64
2023/04/06 10:21:58;;;;;;;7.53;6.20;;;12.60;40.00;;;;;;5034522;28;20990;-65
2023/04/06 10:24:26;;;;;;;6.97;5.70;;;12.60;39.60;;;;;;5035614;28;21042;-65
2023/04/06 10:27:02;;;;;;;7.80;6.30;;;12.80;39.50;;;;;;5035546;28;20540;-65
2023/04/06 10:29:41;;;;;;;8.43;6.10;;;12.70;38.30;;;;;;5034709;28;20828;-65
2023/04/06 10:32:14;;;;;;;8.60;6.70;;;12.70;38.50;;;;;;5034319;28;21008;-64
2023/04/06 10:34:41;;;;;;;6.23;5.63;;;12.80;38.50;;;;;;5034609;28;20449;-64
2023/04/06 10:37:15;;;;;;;7.33;6.07;;;13.00;38.60;;;;;;5035103;28;20502;-64
2023/04/06 10:39:54;;;;;;;7.50;5.97;;;13.10;38.20;;;;;;5039011;28;20536;-63
2023/04/06 10:42:25;;;;;;;15.23;8.73;;;13.20;37.70;;;;;;5035097;28;20892;-65
2023/04/06 10:44:52;;;;;;;12.73;8.60;;;13.20;37.30;;;;;;5035293;28;20473;-64
2023/04/06 10:47:19;;;;;;;22.73;13.80;;;13.30;37.30;;;;;;5034975;28;20939;-65
2023/04/06 10:49:46;;;;;;;9.87;6.90;;;13.40;37.20;;;;;;5034837;28;20485;-64
2023/04/06 10:52:13;;;;;;;7.90;6.57;;;13.40;36.50;;;;;;5034494;28;20484;-64
2023/04/06 10:54:43;;;;;;;7.30;6.40;;;13.40;36.40;;;;;;5034830;28;20480;-65
2023/04/06 10:57:10;;;;;;;7.83;6.73;;;13.40;36.00;;;;;;5035131;28;20463;-64
2023/04/06 10:59:43;;;;;;;7.90;7.03;;;13.50;36.00;;;;;;5034115;28;20449;-64
2023/04/06 11:02:19;;;;;;;8.20;6.77;;;13.50;35.90;;;;;;5033961;28;21044;-65
2023/04/06 11:04:55;;;;;;;10.10;6.77;;;13.60;35.70;;;;;;5035459;28;20437;-63
2023/04/06 11:07:24;;;;;;;7.60;6.30;;;13.80;35.90;;;;;;5034349;28;20933;-64
2023/04/06 11:09:51;;;;;;;7.73;6.50;;;13.80;35.50;;;;;;5035391;28;21002;-65
2023/04/06 11:12:22;;;;;;;7.63;6.90;;;13.80;35.50;;;;;;5033683;28;20492;-66
2023/04/06 11:15:00;;;;;;;6.50;5.90;;;13.90;35.50;;;;;;5034428;28;20465;-64
2023/04/06 11:17:28;;;;;;;10.60;6.70;;;14.00;35.30;;;;;;5034932;28;20437;-66
2023/04/06 11:19:55;;;;;;;7.97;6.30;;;14.10;35.10;;;;;;5034505;28;20503;-63
2023/04/06 11:22:22;;;;;;;10.13;7.83;;;14.20;34.80;;;;;;5034166;28;20473;-64
2023/04/06 11:24:49;;;;;;;8.60;7.00;;;14.30;34.40;;;;;;5034016;28;20441;-64
2023/04/06 11:27:16;;;;;;;15.40;8.97;;;14.30;34.10;;;;;;5034001;28;20488;-65
2023/04/06 11:29:45;;;;;;;10.50;8.57;;;14.40;33.90;;;;;;5034843;28;20481;-64
2023/04/06 11:32:21;;;;;;;8.97;8.07;;;14.40;33.50;;;;;;5035080;28;20576;-64
2023/04/06 11:34:49;;;;;;;9.23;7.60;;;14.40;33.40;;;;;;5034277;28;20425;-64
2023/04/06 11:37:16;;;;;;;10.60;7.43;;;14.30;33.40;;;;;;5034360;28;20445;-64
2023/04/06 11:39:48;;;;;;;8.53;7.70;;;14.30;33.50;;;;;;5036611;28;20449;-64
2023/04/06 11:42:23;;;;;;;9.13;7.60;;;14.30;33.60;;;;;;5038859;28;20461;-65
2023/04/06 11:44:52;;;;;;;8.30;7.37;;;14.40;33.60;;;;;;5035138;28;20425;-64
2023/04/06 11:47:22;;;;;;;8.97;7.57;;;14.40;33.60;;;;;;5035528;28;20445;-65
2023/04/06 11:49:50;;;;;;;8.77;7.80;;;14.40;33.30;;;;;;5036119;28;20453;-65
2023/04/06 11:52:18;;;;;;;9.77;7.97;;;14.40;33.40;;;;;;5035841;28;20580;-64
2023/04/06 11:54:45;;;;;;;9.83;6.97;;;14.50;33.40;;;;;;5035008;28;20540;-64
2023/04/06 11:57:12;;;;;;;8.43;7.60;;;14.50;33.10;;;;;;5033466;28;20540;-64
2023/04/06 11:59:39;;;;;;;10.30;8.07;;;14.50;33.30;;;;;;5032883;28;20888;-63
2023/04/06 12:02:06;;;;;;;10.13;8.13;;;14.60;33.40;;;;;;5032648;28;20500;-63
2023/04/06 12:04:34;;;;;;;9.20;6.70;;;14.60;33.40;;;;;;5032966;28;20467;-65
2023/04/06 12:07:02;;;;;;;12.87;7.90;;;14.70;33.60;;;;;;5032791;28;20453;-64
2023/04/06 12:09:29;;;;;;;10.47;9.47;;;14.80;33.50;;;;;;5032184;28;20536;-64
2023/04/06 12:11:55;;;;;;;9.60;7.87;;;14.80;33.50;;;;;;5032399;28;20568;-64
2023/04/06 12:14:23;;;;;;;10.47;8.20;;;14.90;33.30;;;;;;5032546;28;20445;-64
2023/04/06 12:16:50;;;;;;;12.80;8.03;;;15.00;33.10;;;;;;5032166;28;20484;-65
2023/04/06 12:19:17;;;;;;;9.40;8.40;;;14.90;33.10;;;;;;5032016;28;20441;-64
2023/04/06 12:21:45;;;;;;;9.17;7.80;;;14.90;33.00;;;;;;5031906;28;20611;-65
2023/04/06 12:24:12;;;;;;;8.70;7.70;;;14.90;32.80;;;;;;5032016;28;20528;-66
2023/04/06 12:26:41;;;;;;;9.07;7.73;;;14.90;32.90;;;;;;5038018;28;20456;-64
2023/04/06 12:29:08;;;;;;;10.20;7.53;;;14.90;32.90;;;;;;5032514;28;20445;-65
2023/04/06 12:31:38;;;;;;;9.47;8.00;;;14.80;32.50;;;;;;5033395;28;20552;-63
2023/04/06 12:34:05;;;;;;;8.47;7.03;;;14.80;32.70;;;;;;5036546;28;20418;-65
2023/04/06 12:36:32;;;;;;;8.97;8.07;;;14.80;33.60;;;;;;5036405;28;20943;-64
2023/04/06 12:39:02;;;;;;;8.87;7.93;;;14.90;33.20;;;;;;5036287;28;20528;-65
2023/04/06 12:41:29;;;;;;;11.40;7.50;;;15.00;33.20;;;;;;5036876;28;20521;-64
2023/04/06 12:43:56;;;;;;;8.93;8.03;;;14.90;33.00;;;;;;5036498;28;20806;-65
2023/04/06 12:46:23;;;;;;;8.00;7.20;;;15.00;33.30;;;;;;5036032;28;20437;-65
2023/04/06 12:48:53;;;;;;;8.30;7.50;;;15.00;33.40;;;;;;5036250;28;20523;-66
2023/04/06 12:51:20;;;;;;;11.30;8.20;;;15.00;33.30;;;;;;5036622;28;20500;-66
2023/04/06 12:53:47;;;;;;;8.60;7.80;;;14.80;33.00;;;;;;5035855;28;20511;-66
2023/04/06 12:56:17;;;;;;;8.53;7.60;;;14.90;33.80;;;;;;5035735;28;20532;-65